Atlanta, MI (49709)

2:58 PM EDT on August 03, 2015 (GMT -0400)
Moon Lake | | Change Station
CLOSE
Current Station
Personal Weather Station
Location: Lewiston, MI
Elevation: 1240 ft
Nearby Weather Stations

Elev 1240 ft 44.84 °N, 84.26 °W | Updated 17 minutes ago

Mostly Cloudy
Mostly Cloudy
70.2 °F
Feels Like 76 °F
N
1.3
Wind Variable Wind from WSW
Gusts 1.3 mph

Today
High -- | Low -- °F
--% Chance of Precip.
Yesterday
High -- | Low -- °F
Precip. -- in
6:23 AM 9:00 PM
Waning Gibbous, 85% visible
Pressure 29.76 in
Visibility 10.0 miles
Clouds Mostly Cloudy 4700 ft
Mostly Cloudy 5500 ft
Heat Index 76 °F
Dew Point 56 °F
Humidity 61%
Rainfall 0.00 in
Snow Depth Not available.
UV 5 out of 12
Pollen 5.40 out of 12
Air Quality Not available.
Flu Activity Not available.
METAR KGLR 031853Z AUTO 29008G15KT 270V350 10SM BKN047 BKN055 22/10 A2977 RMK AO2 SLP078 T02170100

More Conditions Fewer Conditions

Pressure 29.76 in
Visibility 10.0 miles
Clouds Mostly Cloudy 4700 ft
Mostly Cloudy 5500 ft
Heat Index 76 °F
Dew Point 56 °F
Humidity 61%
Rainfall 0.00 in
Snow Depth Not available.
UV 5 out of 12
Pollen 5.40 out of 12
Air Quality Not available.
Flu Activity Not available.
METAR KGLR 031853Z AUTO 29008G15KT 270V350 10SM BKN047 BKN055 22/10 A2977 RMK AO2 SLP078 T02170100

More Conditions Fewer Conditions

Nowcast | as of 1:00 PM EDT on August 3, 2015

At 2 PM...mostly cloudy. Chance of showers and isolated thunderstorms. Temperature 71. Northwest winds 12 mph. At 4 PM...mostly cloudy. Chance of showers and isolated thunderstorms. Temperature 72. West winds 12 mph. At 6 PM...mostly cloudy. Chance of showers and isolated thunderstorms. Temperature 71. West winds 9 mph. At 8 PM...mostly cloudy. Chance of showers. Temperature 67. Northwest winds 7 mph.

×

10-Day Weather Forecast

×

Almanac

Astronomy

Aug. 03, 2015 Rise Set
Actual Time
Civil Twilight
Nautical Twilight
Astronomical Twilight
Moon
Length of Visible Light
Length of Day
Tomorrow will be .
, % of the Moon is Illuminated

Today's Extremes

State Highs State Lows

Community

WunderPhotos

Upload Photos

1,843,704 photos uploaded!

WunderBlogs® & News

Nearby

Air Quality

  Air Quality AQ Index Pollutant
Not available.

Snow Depth

Station Depth Elevation

Earthquake Activity

City Distance Mag. Time & Date
Minimum magnitude displayed is 2.5.

Coastal Water Temperatures

Place Temperature

Stations

Nearby Weather Stations

Station Location Temp. Windchill Dew Point Humidity Wind Precip. Elev Updated Type